Juan Pablo Perez Alfonzo, Venezuela

2:02 AM VET on October 25, 2014 (GMT -0430)
Juan Pablo Perez Alfonzo | Change Station
CLOSE
Current Station
Airport
Location: El Vigia / Perez Alph,
Elevation: 328 ft
Nearby Weather Stations

Elev 328 ft 8.62 °N, 71.67 °W | Updated 32 minutes ago

Mostly Cloudy
Mostly Cloudy
81 °F
Feels Like 89 °F
N
0
Wind Variable Wind from North

Today
High -- | Low -- °F
--% Chance of Precip.
Yesterday
High -- | Low -- °F
Precip. -- in
6:04 AM 5:56 PM
New Moon, 2% visible
Pressure 29.89 in
Visibility 6.2 miles
Clouds Few 1700 ft
Mostly Cloudy 10000 ft
Heat Index 89 °F
Dew Point 81 °F
Humidity 100%
Rainfall 0.00 in
Snow Depth Not available.
UV 0 out of 12
Pollen Not available.
Air Quality Not available.
Flu Activity Not available.
METAR SVVG 250600Z 00000KT 9999 FEW017 BKN100 27/27 Q1012

More Conditions Fewer Conditions

Pressure 29.89 in
Visibility 6.2 miles
Clouds Few 1700 ft
Mostly Cloudy 10000 ft
Heat Index 89 °F
Dew Point 81 °F
Humidity 100%
Rainfall 0.00 in
Snow Depth Not available.
UV 0 out of 12
Pollen Not available.
Air Quality Not available.
Flu Activity Not available.
METAR SVVG 250600Z 00000KT 9999 FEW017 BKN100 27/27 Q1012

More Conditions Fewer Conditions

10-Day Weather Forecast

Almanac

Astronomy

Oct. 25, 2014 Rise Set
Actual Time 6:04 AM VET 5:56 PM VET
Civil Twilight 5:43 AM VET 6:17 PM VET
Nautical Twilight 5:18 AM VET 6:42 PM VET
Astronomical Twilight 4:53 AM VET 7:07 PM VET
Moon 7:28 AM VET 7:32 PM VET
Length of Visible Light 12h 34m
Length of Day
11h 51m
Tomorrow will be 0m 25s shorter.
New Moon, 2% of the Moon is Illuminated
Today
New Moon
Oct 30
First Quarter
Nov 6
Full
Nov 14
Last Quarter
Nov 22
New

Yesterday's Extremes

Country Highs Country Lows

Community

WunderPhotos

Upload Photos

1,764,785 photos uploaded!

Nearby

Snow Depth

Not available.

Earthquake Activity

City Distance Mag. Time & Date
No recent earthquake activity has been reported nearby.
Minimum magnitude displayed is 2.5.

Coastal Water Temperatures

Place Temperature
No Stations Reporting

Nearby Weather Stations